Terminal Aerodrome Forecast
Issued by NWS Sterling, VA

Current Version | Previous Version | Graphics & Text | Print | Product List | Glossary On
Versions: 1 2 3 4 5 6 7 8 9 10 11 12 13 14 15
000
FTUS41 KLWX 141700
TAFMRB
TAF
KMRB 141740Z 1418/1518 21011KT P6SM OVC040
     FM150000 19011KT P6SM -SHRA OVC060
     FM150400 18011G19KT P6SM OVC035
     FM150900 17012G23KT 5SM -SHRA OVC010
     FM151500 22014G26KT 3SM -SHRA OVC025
     FM151700 28015G27KT 3SM -SHRA OVC035=

USA.gov is the U.S. government's official web portal to all federal, state and local government web resources and services.